Time;durP1;ratioP1;P1;durP2;ratioP2;P2;SDS_P1;SDS_P2;PMS_P1;PMS_P2;Temp;Humidity;BMP_temperature;BMP_pressure;BME280_temperature;BME280_humidity;BME280_pressure;Samples;Min_cycle;Max_cycle;Signal;HPM_P1;HPM_P2
2024/01/28 00:01:19;;;;;;;8.25;1.35;;;;;;;;;;5083840;28;20044;-76
2024/01/28 00:03:51;;;;;;;3.60;1.05;;;;;;;;;;5084373;28;20406;-77
2024/01/28 00:06:21;;;;;;;4.00;1.20;;;;;;;;;;5082989;28;20059;-76
2024/01/28 00:08:51;;;;;;;9.07;1.83;;;;;;;;;;5082839;28;20074;-76
2024/01/28 00:11:23;;;;;;;8.98;1.20;;;;;;;;;;5082792;28;20047;-76
2024/01/28 00:13:54;;;;;;;7.82;1.38;;;;;;;;;;5083538;28;20422;-76
2024/01/28 00:16:26;;;;;;;4.65;1.13;;;;;;;;;;5083510;28;20055;-76
2024/01/28 00:19:00;;;;;;;7.97;1.27;;;;;;;;;;5082885;28;20391;-75
2024/01/28 00:21:32;;;;;;;5.18;1.27;;;;;;;;;;5083133;28;20052;-76
2024/01/28 00:24:06;;;;;;;8.48;1.23;;;;;;;;;;5082822;28;20054;-74
2024/01/28 00:26:38;;;;;;;8.85;1.15;;;;;;;;;;5082690;28;20064;-75
2024/01/28 00:29:09;;;;;;;9.70;1.35;;;;;;;;;;5081605;28;20044;-76
2024/01/28 00:31:39;;;;;;;6.05;1.13;;;;;;;;;;5081374;28;20059;-75
2024/01/28 00:34:09;;;;;;;5.65;0.88;;;;;;;;;;5085628;28;20379;-75
2024/01/28 00:36:39;;;;;;;8.45;1.10;;;;;;;;;;5081542;28;20048;-75
2024/01/28 00:39:13;;;;;;;9.60;1.00;;;;;;;;;;5082848;28;20051;-75
2024/01/28 00:41:44;;;;;;;4.25;0.80;;;;;;;;;;5082764;28;20052;-74
2024/01/28 00:44:18;;;;;;;3.88;0.80;;;;;;;;;;5083714;28;20047;-75
2024/01/28 00:46:49;;;;;;;5.60;0.95;;;;;;;;;;5083003;28;20048;-77
2024/01/28 00:49:23;;;;;;;7.57;1.85;;;;;;;;;;5082193;28;20036;-76
2024/01/28 00:51:54;;;;;;;10.48;1.30;;;;;;;;;;5081858;28;20610;-75
2024/01/28 00:54:26;;;;;;;7.97;1.25;;;;;;;;;;5081099;28;20067;-75
2024/01/28 00:56:56;;;;;;;5.95;0.88;;;;;;;;;;5082055;28;20055;-76
2024/01/28 00:59:28;;;;;;;9.40;1.02;;;;;;;;;;5082096;28;20052;-75
2024/01/28 01:01:59;;;;;;;7.85;0.98;;;;;;;;;;5082819;28;20059;-75
2024/01/28 01:04:30;;;;;;;3.92;1.00;;;;;;;;;;5082339;28;20040;-75
2024/01/28 01:07:01;;;;;;;16.92;1.40;;;;;;;;;;5081784;28;20051;-75
2024/01/28 01:09:31;;;;;;;10.23;1.70;;;;;;;;;;5082405;28;20056;-75
2024/01/28 01:12:04;;;;;;;5.82;1.10;;;;;;;;;;5082477;28;20113;-76
2024/01/28 01:14:37;;;;;;;6.05;1.23;;;;;;;;;;5064177;28;20074;-75
2024/01/28 01:17:07;;;;;;;10.02;1.27;;;;;;;;;;5082027;28;20055;-75
2024/01/28 01:19:37;;;;;;;8.57;1.40;;;;;;;;;;5081478;28;20422;-77
2024/01/28 01:22:10;;;;;;;5.45;1.20;;;;;;;;;;5081795;28;20430;-75
2024/01/28 01:24:41;;;;;;;9.27;1.35;;;;;;;;;;5081978;28;20051;-75
2024/01/28 01:27:13;;;;;;;8.93;1.65;;;;;;;;;;5081611;28;20052;-75
2024/01/28 01:29:43;;;;;;;7.93;1.10;;;;;;;;;;5081377;28;20059;-75
2024/01/28 01:32:13;;;;;;;6.22;1.40;;;;;;;;;;5080731;28;20063;-77
2024/01/28 01:34:44;;;;;;;9.75;1.40;;;;;;;;;;5082035;28;20047;-75
2024/01/28 01:37:15;;;;;;;5.15;1.13;;;;;;;;;;5080033;28;20056;-75
2024/01/28 01:39:47;;;;;;;5.57;0.98;;;;;;;;;;5081258;28;20085;-76
2024/01/28 01:42:18;;;;;;;9.23;1.70;;;;;;;;;;5081594;28;20052;-75
2024/01/28 01:44:48;;;;;;;14.43;1.60;;;;;;;;;;5081393;28;20051;-75
2024/01/28 01:47:20;;;;;;;9.80;1.42;;;;;;;;;;5081559;28;20059;-74
2024/01/28 01:49:52;;;;;;;7.03;1.20;;;;;;;;;;5082400;28;20052;-76
2024/01/28 01:52:22;;;;;;;8.73;1.23;;;;;;;;;;5080604;28;20141;-74
2024/01/28 01:54:54;;;;;;;14.05;1.20;;;;;;;;;;5080135;28;20044;-75
2024/01/28 01:57:26;;;;;;;8.70;1.73;;;;;;;;;;5081792;28;20054;-79
2024/01/28 01:59:57;;;;;;;7.32;1.33;;;;;;;;;;5082273;28;20486;-75
2024/01/28 02:02:27;;;;;;;9.50;1.58;;;;;;;;;;5081836;28;20044;-75
2024/01/28 02:04:58;;;;;;;9.15;1.42;;;;;;;;;;5084687;28;20059;-75
2024/01/28 02:07:30;;;;;;;9.25;1.35;;;;;;;;;;5086534;28;20052;-76
2024/01/28 02:10:03;;;;;;;12.60;1.52;;;;;;;;;;5085225;28;20498;-74
2024/01/28 02:12:35;;;;;;;8.35;1.70;;;;;;;;;;5085231;28;20056;-74
2024/01/28 02:15:06;;;;;;;11.35;1.50;;;;;;;;;;5085709;28;20491;-74
2024/01/28 02:17:37;;;;;;;7.20;1.08;;;;;;;;;;5085400;28;20665;-75
2024/01/28 02:20:10;;;;;;;12.25;1.33;;;;;;;;;;5085068;28;20487;-75
2024/01/28 02:22:45;;;;;;;6.35;1.33;;;;;;;;;;5085511;28;20411;-74
2024/01/28 02:25:15;;;;;;;5.68;1.02;;;;;;;;;;5086578;28;20839;-75
2024/01/28 02:27:46;;;;;;;14.45;1.42;;;;;;;;;;5085527;28;20039;-76
2024/01/28 02:30:18;;;;;;;8.05;1.42;;;;;;;;;;5085666;28;20434;-75
2024/01/28 02:32:51;;;;;;;5.20;1.25;;;;;;;;;;5086154;28;20044;-76
2024/01/28 02:35:21;;;;;;;8.25;1.00;;;;;;;;;;5084907;28;20051;-75
2024/01/28 02:37:51;;;;;;;12.00;1.73;;;;;;;;;;5084562;28;20059;-74
2024/01/28 02:40:21;;;;;;;11.52;1.60;;;;;;;;;;5084490;28;20052;-77
2024/01/28 02:42:52;;;;;;;2.90;0.93;;;;;;;;;;5085426;28;20052;-74
2024/01/28 02:45:23;;;;;;;6.47;1.25;;;;;;;;;;5083451;28;20040;-75
2024/01/28 02:47:55;;;;;;;10.40;1.13;;;;;;;;;;5084985;28;20040;-75
2024/01/28 02:50:24;;;;;;;7.05;1.15;;;;;;;;;;5083023;28;20055;-74
2024/01/28 02:52:57;;;;;;;8.77;1.90;;;;;;;;;;5084898;28;20051;-75
2024/01/28 02:55:28;;;;;;;5.30;1.10;;;;;;;;;;5084786;28;20043;-76
2024/01/28 02:57:59;;;;;;;8.93;1.33;;;;;;;;;;5084727;28;20055;-75
2024/01/28 03:00:29;;;;;;;9.77;1.17;;;;;;;;;;5084217;28;20474;-75
2024/01/28 03:03:01;;;;;;;5.82;1.25;;;;;;;;;;5085343;28;20410;-75
2024/01/28 03:05:31;;;;;;;6.85;1.10;;;;;;;;;;5085134;28;20052;-75
2024/01/28 03:08:02;;;;;;;7.43;1.10;;;;;;;;;;5082936;28;20055;-75
2024/01/28 03:10:32;;;;;;;8.10;1.05;;;;;;;;;;5084474;28;20055;-75
2024/01/28 03:13:03;;;;;;;8.68;0.82;;;;;;;;;;5084464;28;20426;-74
2024/01/28 03:15:34;;;;;;;7.50;1.35;;;;;;;;;;5083797;28;20048;-74
2024/01/28 03:18:06;;;;;;;5.97;1.05;;;;;;;;;;5083985;28;20047;-82
2024/01/28 03:20:37;;;;;;;8.25;1.00;;;;;;;;;;5084477;28;20056;-75
2024/01/28 03:23:07;;;;;;;7.97;1.35;;;;;;;;;;5083773;28;20549;-75
2024/01/28 03:25:37;;;;;;;9.85;1.10;;;;;;;;;;5084437;28;20511;-74
2024/01/28 03:28:08;;;;;;;12.18;1.35;;;;;;;;;;5084032;28;20423;-75
2024/01/28 03:30:38;;;;;;;6.68;1.23;;;;;;;;;;5082898;28;20043;-78
2024/01/28 03:33:09;;;;;;;6.72;1.08;;;;;;;;;;5084716;28;20039;-75
2024/01/28 03:35:40;;;;;;;6.13;1.10;;;;;;;;;;5084192;28;20510;-74
2024/01/28 03:38:11;;;;;;;4.88;1.15;;;;;;;;;;5083971;28;20422;-76
2024/01/28 03:40:43;;;;;;;5.72;1.05;;;;;;;;;;5083822;28;20621;-75
2024/01/28 03:43:14;;;;;;;7.13;1.50;;;;;;;;;;5083581;28;20044;-74
2024/01/28 03:45:46;;;;;;;7.88;1.00;;;;;;;;;;5083744;28;20410;-76
2024/01/28 03:48:18;;;;;;;4.85;1.00;;;;;;;;;;5083255;28;20511;-74
2024/01/28 03:50:48;;;;;;;6.47;1.20;;;;;;;;;;5083818;28;20406;-76
2024/01/28 03:53:18;;;;;;;14.70;1.52;;;;;;;;;;5083794;28;20080;-75
2024/01/28 03:55:49;;;;;;;8.05;1.08;;;;;;;;;;5083906;28;20044;-75
2024/01/28 03:58:21;;;;;;;4.07;1.25;;;;;;;;;;5081480;28;20161;-74
2024/01/28 04:00:51;;;;;;;6.05;1.17;;;;;;;;;;5083638;28;20044;-75
2024/01/28 04:03:22;;;;;;;3.92;0.93;;;;;;;;;;5081514;28;20051;-74
2024/01/28 04:05:53;;;;;;;6.70;1.30;;;;;;;;;;5083356;28;20055;-74
2024/01/28 04:08:24;;;;;;;7.13;1.00;;;;;;;;;;5082976;28;20074;-76
2024/01/28 04:10:55;;;;;;;4.72;1.45;;;;;;;;;;5084247;28;20843;-75
2024/01/28 04:13:25;;;;;;;2.65;0.80;;;;;;;;;;5084772;28;20510;-75
2024/01/28 04:15:57;;;;;;;5.93;1.17;;;;;;;;;;5081129;28;21091;-73
2024/01/28 04:18:27;;;;;;;6.50;1.00;;;;;;;;;;5082682;28;20410;-74
2024/01/28 04:20:58;;;;;;;5.88;1.05;;;;;;;;;;5083093;28;20505;-74
2024/01/28 04:23:28;;;;;;;8.75;1.15;;;;;;;;;;5083292;28;20111;-75
2024/01/28 04:25:58;;;;;;;8.98;1.40;;;;;;;;;;5083037;28;20055;-76
2024/01/28 04:28:29;;;;;;;3.78;0.75;;;;;;;;;;5082721;28;20048;-75
2024/01/28 04:31:02;;;;;;;5.90;1.20;;;;;;;;;;5083146;28;20048;-75
2024/01/28 04:33:33;;;;;;;6.28;0.90;;;;;;;;;;5082415;28;20544;-75
2024/01/28 04:36:04;;;;;;;8.80;1.50;;;;;;;;;;5083000;28;20052;-75
2024/01/28 04:38:34;;;;;;;10.55;1.10;;;;;;;;;;5082305;28;20499;-74
2024/01/28 04:41:05;;;;;;;11.65;1.45;;;;;;;;;;5082638;28;20048;-75
2024/01/28 04:43:41;;;;;;;3.28;0.95;;;;;;;;;;5082414;28;20044;-75
2024/01/28 04:46:16;;;;;;;7.95;1.23;;;;;;;;;;5082948;28;20054;-75
2024/01/28 04:48:46;;;;;;;9.82;1.67;;;;;;;;;;5082317;28;20040;-75
2024/01/28 04:51:17;;;;;;;9.63;1.02;;;;;;;;;;5082810;28;20048;-75
2024/01/28 04:53:49;;;;;;;11.88;1.10;;;;;;;;;;5082704;28;20541;-75
2024/01/28 04:56:19;;;;;;;5.72;1.15;;;;;;;;;;5081989;28;20406;-74
2024/01/28 04:58:49;;;;;;;5.20;0.82;;;;;;;;;;5083029;28;20497;-75
2024/01/28 05:01:19;;;;;;;5.85;1.23;;;;;;;;;;5082706;28;20051;-75
2024/01/28 05:03:52;;;;;;;4.70;0.90;;;;;;;;;;5082713;28;20052;-75
2024/01/28 05:06:23;;;;;;;8.40;1.40;;;;;;;;;;5082399;28;20043;-74
2024/01/28 05:08:54;;;;;;;8.80;1.13;;;;;;;;;;5082056;28;20043;-74
2024/01/28 05:11:24;;;;;;;2.90;0.80;;;;;;;;;;5082021;28;20051;-75
2024/01/28 05:13:54;;;;;;;5.28;1.08;;;;;;;;;;5080726;28;20537;-75
2024/01/28 05:16:25;;;;;;;3.15;0.73;;;;;;;;;;5081486;28;20541;-75
2024/01/28 05:18:59;;;;;;;5.90;1.30;;;;;;;;;;5080839;28;20059;-75
2024/01/28 05:21:30;;;;;;;4.05;0.80;;;;;;;;;;5081995;28;20040;-76
2024/01/28 05:24:00;;;;;;;7.78;1.10;;;;;;;;;;5082055;28;20055;-75
2024/01/28 05:26:32;;;;;;;7.47;1.17;;;;;;;;;;5081945;28;20399;-75
2024/01/28 05:29:06;;;;;;;3.65;1.05;;;;;;;;;;5080639;28;20040;-75
2024/01/28 05:31:37;;;;;;;4.53;1.00;;;;;;;;;;5081945;28;20499;-75
2024/01/28 05:34:07;;;;;;;8.80;1.20;;;;;;;;;;5083123;28;20058;-75
2024/01/28 05:36:38;;;;;;;6.18;0.93;;;;;;;;;;5081995;28;20495;-75
2024/01/28 05:39:09;;;;;;;6.32;0.70;;;;;;;;;;5084816;28;20048;-74
2024/01/28 05:41:40;;;;;;;5.47;1.10;;;;;;;;;;5086157;28;20055;-75
2024/01/28 05:44:10;;;;;;;6.75;0.88;;;;;;;;;;5086146;28;20079;-75
2024/01/28 05:46:43;;;;;;;4.60;0.95;;;;;;;;;;5085682;28;20048;-75
2024/01/28 05:49:14;;;;;;;4.15;1.27;;;;;;;;;;5086118;28;20058;-75
2024/01/28 05:51:44;;;;;;;4.53;1.17;;;;;;;;;;5086300;28;20399;-75
2024/01/28 05:54:15;;;;;;;8.57;1.13;;;;;;;;;;5086251;28;20055;-75
2024/01/28 05:56:47;;;;;;;10.43;1.42;;;;;;;;;;5083797;28;20543;-75
2024/01/28 05:59:18;;;;;;;6.32;1.08;;;;;;;;;;5085896;28;20051;-74
2024/01/28 06:01:48;;;;;;;6.05;1.52;;;;;;;;;;5085535;28;20055;-74
2024/01/28 06:04:18;;;;;;;3.00;0.93;;;;;;;;;;5085480;28;20047;-75
2024/01/28 06:06:50;;;;;;;2.13;0.70;;;;;;;;;;5085543;28;20036;-75
2024/01/28 06:09:21;;;;;;;9.68;1.10;;;;;;;;;;5085757;28;20051;-75
2024/01/28 06:11:51;;;;;;;6.88;1.17;;;;;;;;;;5085850;28;20040;-75
2024/01/28 06:14:23;;;;;;;7.57;1.25;;;;;;;;;;5085325;28;20052;-74
2024/01/28 06:16:56;;;;;;;6.05;1.33;;;;;;;;;;5085374;28;20055;-74
2024/01/28 06:19:26;;;;;;;8.07;1.60;;;;;;;;;;5085235;28;20060;-74
2024/01/28 06:22:01;;;;;;;8.07;1.58;;;;;;;;;;5084515;28;20063;-75
2024/01/28 06:24:35;;;;;;;3.15;0.90;;;;;;;;;;5084140;28;20048;-75
2024/01/28 06:27:06;;;;;;;12.00;1.40;;;;;;;;;;5085081;28;20850;-75
2024/01/28 06:29:37;;;;;;;2.28;0.88;;;;;;;;;;5083676;28;20427;-74
2024/01/28 06:32:07;;;;;;;9.68;1.80;;;;;;;;;;5084610;28;20257;-75
2024/01/28 06:34:38;;;;;;;10.52;1.60;;;;;;;;;;5084800;28;20052;-75
2024/01/28 06:37:08;;;;;;;8.05;1.30;;;;;;;;;;5085271;28;20066;-75
2024/01/28 06:39:39;;;;;;;5.35;1.30;;;;;;;;;;5085372;28;20044;-75
2024/01/28 06:42:10;;;;;;;3.65;1.10;;;;;;;;;;5085581;28;20048;-75
2024/01/28 06:44:41;;;;;;;5.35;1.25;;;;;;;;;;5103053;28;20414;-75
2024/01/28 06:47:11;;;;;;;6.72;1.30;;;;;;;;;;5105101;28;20811;-75
2024/01/28 06:49:42;;;;;;;11.07;1.40;;;;;;;;;;5104442;28;20510;-75
2024/01/28 06:52:15;;;;;;;6.40;1.20;;;;;;;;;;5105649;28;20947;-75
2024/01/28 06:54:45;;;;;;;4.43;1.48;;;;;;;;;;5105359;28;20494;-75
2024/01/28 06:57:15;;;;;;;2.90;1.10;;;;;;;;;;5104705;28;20533;-76
2024/01/28 06:59:46;;;;;;;1.48;1.02;;;;;;;;;;5105122;28;20048;-75
2024/01/28 07:02:17;;;;;;;7.57;1.13;;;;;;;;;;5104512;28;20413;-75
2024/01/28 07:04:47;;;;;;;2.83;0.95;;;;;;;;;;5104370;28;20043;-75
2024/01/28 07:07:18;;;;;;;4.28;1.05;;;;;;;;;;5104361;28;20058;-75
2024/01/28 07:09:48;;;;;;;3.50;0.90;;;;;;;;;;5104803;28;20048;-76
2024/01/28 07:12:19;;;;;;;8.27;1.10;;;;;;;;;;5104448;28;20044;-76
2024/01/28 07:14:49;;;;;;;9.35;1.58;;;;;;;;;;5104183;28;20059;-74
2024/01/28 07:17:20;;;;;;;4.10;1.30;;;;;;;;;;5104625;28;20616;-75
2024/01/28 07:19:50;;;;;;;5.50;0.95;;;;;;;;;;5104062;28;20055;-75
2024/01/28 07:22:21;;;;;;;7.68;1.20;;;;;;;;;;5104398;28;20054;-75
2024/01/28 07:24:51;;;;;;;4.13;1.20;;;;;;;;;;5104600;28;20043;-75
2024/01/28 07:27:21;;;;;;;3.53;1.00;;;;;;;;;;5103692;27;20051;-76
2024/01/28 07:29:52;;;;;;;4.55;0.80;;;;;;;;;;5103328;27;20054;-76
2024/01/28 07:32:24;;;;;;;5.57;0.90;;;;;;;;;;5104237;28;20407;-75
2024/01/28 07:34:56;;;;;;;4.45;0.90;;;;;;;;;;5104568;28;20506;-75
2024/01/28 07:37:26;;;;;;;2.60;0.73;;;;;;;;;;5103831;28;20051;-75
2024/01/28 07:39:56;;;;;;;6.18;1.17;;;;;;;;;;5103836;28;20422;-75
2024/01/28 07:42:26;;;;;;;5.63;0.80;;;;;;;;;;5103824;28;20054;-75
2024/01/28 07:44:57;;;;;;;9.70;1.60;;;;;;;;;;5103897;28;20044;-76
2024/01/28 07:47:28;;;;;;;2.28;1.15;;;;;;;;;;5103988;28;20047;-75
2024/01/28 07:49:59;;;;;;;4.47;1.00;;;;;;;;;;5103646;28;20058;-75
2024/01/28 07:52:29;;;;;;;5.18;0.98;;;;;;;;;;5103259;28;20565;-75
2024/01/28 07:54:59;;;;;;;3.30;1.05;;;;;;;;;;5104671;28;20490;-82
2024/01/28 07:57:30;;;;;;;5.28;1.15;;;;;;;;;;5086330;28;20586;-75
2024/01/28 08:00:00;;;;;;;5.35;1.10;;;;;;;;;;5103543;28;20811;-75
2024/01/28 08:02:39;;;;;;;6.85;1.20;;;;;;;;;;5106193;28;20066;-75
2024/01/28 08:05:10;;;;;;;7.13;1.38;;;;;;;;;;5101966;28;20049;-74
2024/01/28 08:07:41;;;;;;;6.68;1.30;;;;;;;;;;5103555;28;20043;-75
2024/01/28 08:10:11;;;;;;;1.88;1.02;;;;;;;;;;5103555;28;20470;-76
2024/01/28 08:12:42;;;;;;;5.88;1.40;;;;;;;;;;5104158;28;20422;-75
2024/01/28 08:15:13;;;;;;;3.95;1.08;;;;;;;;;;5103857;28;20422;-75
2024/01/28 08:17:44;;;;;;;4.38;1.02;;;;;;;;;;5103150;28;20055;-75
2024/01/28 08:20:17;;;;;;;7.63;1.58;;;;;;;;;;5102850;28;20688;-75
2024/01/28 08:22:48;;;;;;;3.30;1.30;;;;;;;;;;5103396;28;20039;-75
2024/01/28 08:25:18;;;;;;;6.43;1.25;;;;;;;;;;5103534;28;20054;-75
2024/01/28 08:27:48;;;;;;;3.72;0.93;;;;;;;;;;5102901;28;20529;-75
2024/01/28 08:30:22;;;;;;;4.82;1.05;;;;;;;;;;5103037;28;20043;-75
2024/01/28 08:32:54;;;;;;;3.40;0.80;;;;;;;;;;5102964;28;20050;-75
2024/01/28 08:35:25;;;;;;;6.78;0.93;;;;;;;;;;5103361;28;20391;-75
2024/01/28 08:37:56;;;;;;;1.67;0.55;;;;;;;;;;5103413;28;20044;-75
2024/01/28 08:40:26;;;;;;;4.82;1.13;;;;;;;;;;5102774;28;20421;-75
2024/01/28 08:42:57;;;;;;;4.22;0.68;;;;;;;;;;5102652;28;20744;-75
2024/01/28 08:45:29;;;;;;;3.20;0.68;;;;;;;;;;5101534;28;20931;-75
2024/01/28 08:48:01;;;;;;;1.98;0.63;;;;;;;;;;5102943;28;20043;-75
2024/01/28 08:50:32;;;;;;;1.80;0.50;;;;;;;;;;5103175;28;20774;-75
2024/01/28 08:53:02;;;;;;;10.15;0.90;;;;;;;;;;5103812;28;20047;-75
2024/01/28 08:55:34;;;;;;;0.70;0.65;;;;;;;;;;5101745;28;20043;-75
2024/01/28 08:58:04;;;;;;;4.35;0.82;;;;;;;;;;5102333;28;20524;-75
2024/01/28 09:00:34;;;;;;;3.13;0.63;;;;;;;;;;5102294;28;20055;-75
2024/01/28 09:03:05;;;;;;;2.58;0.80;;;;;;;;;;5102734;28;20043;-75
2024/01/28 09:05:36;;;;;;;2.65;0.70;;;;;;;;;;5102517;28;20497;-75
2024/01/28 09:08:07;;;;;;;2.83;0.63;;;;;;;;;;5102949;28;20051;-78
2024/01/28 09:10:38;;;;;;;6.55;0.82;;;;;;;;;;5102494;28;20425;-75
2024/01/28 09:13:07;;;;;;;2.60;0.70;;;;;;;;;;5101280;28;20055;-75
2024/01/28 09:15:38;;;;;;;4.22;1.00;;;;;;;;;;5102519;28;20418;-74
2024/01/28 09:18:09;;;;;;;7.53;1.00;;;;;;;;;;5102187;28;20060;-75
2024/01/28 09:20:40;;;;;;;1.80;0.63;;;;;;;;;;5102412;28;20426;-75
2024/01/28 09:23:11;;;;;;;5.50;1.00;;;;;;;;;;5103219;28;20410;-74
2024/01/28 09:25:41;;;;;;;4.47;0.95;;;;;;;;;;5103449;28;20517;-75
2024/01/28 09:28:12;;;;;;;3.90;0.90;;;;;;;;;;5102326;28;20047;-75
2024/01/28 09:30:42;;;;;;;6.40;1.73;;;;;;;;;;5101948;28;20059;-75
2024/01/28 09:33:12;;;;;;;10.23;1.60;;;;;;;;;;5101979;28;20518;-75
2024/01/28 09:35:44;;;;;;;8.35;1.60;;;;;;;;;;5102508;28;20440;-75
2024/01/28 09:38:19;;;;;;;5.70;1.27;;;;;;;;;;5102358;28;20051;-76
2024/01/28 09:40:50;;;;;;;5.57;1.58;;;;;;;;;;5102759;28;20589;-74
2024/01/28 09:43:30;;;;;;;4.85;1.40;;;;;;;;;;5101965;28;20055;-74
2024/01/28 09:46:00;;;;;;;8.18;1.52;;;;;;;;;;5101701;28;20525;-75
2024/01/28 09:48:32;;;;;;;4.25;0.93;;;;;;;;;;5102128;28;20200;-74
2024/01/28 09:51:03;;;;;;;4.15;1.42;;;;;;;;;;5101040;28;20048;-75
2024/01/28 09:53:34;;;;;;;4.35;1.38;;;;;;;;;;5102707;28;20418;-75
2024/01/28 09:56:05;;;;;;;8.68;1.30;;;;;;;;;;5102506;28;20035;-75
2024/01/28 09:58:36;;;;;;;2.40;1.05;;;;;;;;;;5101743;28;20052;-74
2024/01/28 10:01:11;;;;;;;7.30;1.25;;;;;;;;;;5102406;28;20050;-75
2024/01/28 10:03:43;;;;;;;4.45;1.90;;;;;;;;;;5100757;28;20055;-75
2024/01/28 10:06:13;;;;;;;3.33;1.02;;;;;;;;;;5102335;28;20062;-75
2024/01/28 10:08:45;;;;;;;4.85;1.23;;;;;;;;;;5102183;28;20059;-75
2024/01/28 10:11:16;;;;;;;5.53;1.30;;;;;;;;;;5102131;28;20529;-74
2024/01/28 10:13:47;;;;;;;6.50;1.13;;;;;;;;;;5102205;28;20593;-75
2024/01/28 10:16:23;;;;;;;3.35;1.20;;;;;;;;;;5102131;28;20529;-75
2024/01/28 10:18:55;;;;;;;4.78;1.20;;;;;;;;;;5101766;28;20046;-79
2024/01/28 10:21:26;;;;;;;4.45;1.17;;;;;;;;;;5102065;28;20410;-75
2024/01/28 10:23:57;;;;;;;4.75;1.35;;;;;;;;;;5102181;28;20055;-75
2024/01/28 10:26:27;;;;;;;1.63;0.82;;;;;;;;;;5104473;28;20051;-75
2024/01/28 10:28:58;;;;;;;2.83;1.10;;;;;;;;;;5105442;28;20047;-75
2024/01/28 10:31:30;;;;;;;4.65;0.93;;;;;;;;;;5106025;28;20062;-75
2024/01/28 10:34:01;;;;;;;4.90;1.20;;;;;;;;;;5105408;28;20498;-75
2024/01/28 10:36:39;;;;;;;3.78;0.93;;;;;;;;;;5105929;28;20051;-75
2024/01/28 10:39:14;;;;;;;7.28;1.20;;;;;;;;;;5105295;28;20051;-76
2024/01/28 10:41:53;;;;;;;3.75;0.82;;;;;;;;;;5105271;28;20055;-75
2024/01/28 10:44:24;;;;;;;4.13;0.90;;;;;;;;;;5105818;28;20054;-75
2024/01/28 10:46:59;;;;;;;4.18;0.90;;;;;;;;;;5105280;28;20044;-77
2024/01/28 10:49:37;;;;;;;6.43;1.05;;;;;;;;;;5105275;28;20525;-75
2024/01/28 10:52:10;;;;;;;2.47;1.10;;;;;;;;;;5104617;27;20047;-81
2024/01/28 10:54:41;;;;;;;3.35;1.05;;;;;;;;;;5104955;28;20066;-75
2024/01/28 10:57:13;;;;;;;4.35;1.00;;;;;;;;;;5105152;28;20149;-75
2024/01/28 10:59:44;;;;;;;3.33;0.82;;;;;;;;;;5105097;28;20895;-75
2024/01/28 11:02:15;;;;;;;2.83;0.77;;;;;;;;;;5105265;28;20043;-74
2024/01/28 11:04:47;;;;;;;2.08;0.50;;;;;;;;;;5105042;28;20058;-76
2024/01/28 11:07:21;;;;;;;1.38;0.50;;;;;;;;;;5104346;28;20051;-75
2024/01/28 11:09:53;;;;;;;6.63;0.88;;;;;;;;;;5105036;28;20434;-76
2024/01/28 11:12:24;;;;;;;3.72;0.80;;;;;;;;;;5104918;28;20048;-75
2024/01/28 11:14:59;;;;;;;2.40;0.60;;;;;;;;;;5105066;28;20043;-75
2024/01/28 11:17:35;;;;;;;1.70;0.52;;;;;;;;;;5104688;28;20040;-75
2024/01/28 11:20:07;;;;;;;3.05;0.70;;;;;;;;;;5104777;28;20411;-75
2024/01/28 11:22:54;;;;;;;1.92;0.60;;;;;;;;;;5104114;27;20055;-75
2024/01/28 11:25:28;;;;;;;1.02;0.40;;;;;;;;;;5105219;28;20048;-76
2024/01/28 11:28:05;;;;;;;1.80;0.50;;;;;;;;;;5102896;28;20043;-76
2024/01/28 11:30:37;;;;;;;2.58;0.80;;;;;;;;;;5104677;28;20044;-76
2024/01/28 11:33:11;;;;;;;1.63;0.50;;;;;;;;;;5103898;28;20054;-76
2024/01/28 11:35:46;;;;;;;1.70;0.60;;;;;;;;;;5103900;28;20052;-76
2024/01/28 11:38:26;;;;;;;1.23;0.43;;;;;;;;;;5104429;28;20047;-75
2024/01/28 11:40:59;;;;;;;1.75;0.82;;;;;;;;;;5103912;28;20051;-76
2024/01/28 11:43:30;;;;;;;1.50;0.63;;;;;;;;;;5102470;27;20048;-76
2024/01/28 11:46:01;;;;;;;2.03;1.10;;;;;;;;;;5104227;28;20051;-75
2024/01/28 11:48:32;;;;;;;5.10;0.70;;;;;;;;;;5104132;28;20051;-77
2024/01/28 11:51:04;;;;;;;3.45;0.93;;;;;;;;;;5104779;28;20050;-75
2024/01/28 11:53:34;;;;;;;1.35;0.55;;;;;;;;;;5104836;28;20046;-75
2024/01/28 11:56:08;;;;;;;1.77;0.55;;;;;;;;;;5103824;28;20039;-75
2024/01/28 11:58:38;;;;;;;0.57;0.43;;;;;;;;;;5103880;28;20931;-74
2024/01/28 12:01:10;;;;;;;3.03;0.70;;;;;;;;;;5103703;28;20696;-75
2024/01/28 12:03:41;;;;;;;5.78;0.57;;;;;;;;;;5103292;28;20051;-76
2024/01/28 12:06:12;;;;;;;0.90;0.40;;;;;;;;;;5103683;28;20039;-75
2024/01/28 12:08:43;;;;;;;2.38;0.82;;;;;;;;;;5084796;28;20510;-76
2024/01/28 12:11:17;;;;;;;1.88;0.65;;;;;;;;;;5103954;28;20047;-77
2024/01/28 12:13:49;;;;;;;2.83;0.65;;;;;;;;;;5102794;28;20040;-75
2024/01/28 12:16:24;;;;;;;1.65;0.65;;;;;;;;;;5103852;28;21094;-75
2024/01/28 12:18:56;;;;;;;1.90;0.80;;;;;;;;;;5104067;28;20039;-75
2024/01/28 12:21:28;;;;;;;2.03;0.55;;;;;;;;;;5103793;28;20040;-76
2024/01/28 12:24:02;;;;;;;1.70;0.50;;;;;;;;;;5102954;28;20075;-74
2024/01/28 12:26:33;;;;;;;5.15;0.68;;;;;;;;;;5103112;27;20054;-76
2024/01/28 12:29:03;;;;;;;3.40;1.70;;;;;;;;;;5103769;28;20043;-76
2024/01/28 12:31:35;;;;;;;0.90;0.40;;;;;;;;;;5103530;28;20410;-77
2024/01/28 12:34:15;;;;;;;3.70;0.57;;;;;;;;;;5103263;28;20047;-76
2024/01/28 12:36:46;;;;;;;1.05;0.52;;;;;;;;;;5102364;28;20052;-76
2024/01/28 12:39:16;;;;;;;2.03;1.10;;;;;;;;;;5102110;28;20508;-75
2024/01/28 12:41:47;;;;;;;1.58;0.50;;;;;;;;;;5103057;28;20048;-74
2024/01/28 12:44:17;;;;;;;1.05;0.57;;;;;;;;;;5102370;28;20047;-74
2024/01/28 12:46:48;;;;;;;2.42;0.60;;;;;;;;;;5103292;28;20050;-74
2024/01/28 12:49:18;;;;;;;2.25;0.90;;;;;;;;;;5101942;28;20047;-76
2024/01/28 12:51:52;;;;;;;1.42;0.63;;;;;;;;;;5102876;28;20039;-76
2024/01/28 12:54:23;;;;;;;1.02;0.45;;;;;;;;;;5103067;28;20043;-74
2024/01/28 12:56:54;;;;;;;2.42;0.70;;;;;;;;;;5102720;28;20047;-75
2024/01/28 12:59:24;;;;;;;1.00;0.57;;;;;;;;;;5102540;28;20043;-76
2024/01/28 13:01:55;;;;;;;1.63;0.60;;;;;;;;;;5102409;28;20047;-74
2024/01/28 13:04:28;;;;;;;1.67;0.60;;;;;;;;;;5102502;28;20050;-77
2024/01/28 13:06:59;;;;;;;0.95;0.50;;;;;;;;;;5102637;28;20059;-76
2024/01/28 13:09:29;;;;;;;1.55;0.65;;;;;;;;;;5103055;28;20054;-76
2024/01/28 13:11:59;;;;;;;1.30;0.85;;;;;;;;;;5102027;28;20393;-81
2024/01/28 13:14:30;;;;;;;1.40;0.57;;;;;;;;;;5103253;28;20053;-76
2024/01/28 13:17:01;;;;;;;1.60;0.50;;;;;;;;;;5103454;28;21020;-77
2024/01/28 13:19:31;;;;;;;2.78;0.50;;;;;;;;;;5102027;28;20062;-76
2024/01/28 13:22:02;;;;;;;1.52;0.47;;;;;;;;;;5102446;28;20047;-76
2024/01/28 13:24:32;;;;;;;2.38;0.73;;;;;;;;;;5102022;28;20047;-79
2024/01/28 13:27:03;;;;;;;1.10;0.50;;;;;;;;;;5102496;28;20051;-76
2024/01/28 13:29:38;;;;;;;3.72;0.80;;;;;;;;;;5102702;28;20052;-76
2024/01/28 13:32:08;;;;;;;0.95;0.65;;;;;;;;;;5102873;28;20052;-74
2024/01/28 13:34:39;;;;;;;3.45;0.70;;;;;;;;;;5102318;28;20047;-75
2024/01/28 13:37:10;;;;;;;1.33;0.60;;;;;;;;;;5099927;28;20043;-74
2024/01/28 13:39:42;;;;;;;1.83;0.55;;;;;;;;;;5102599;28;20050;-76
2024/01/28 13:42:12;;;;;;;1.38;0.70;;;;;;;;;;5102470;28;20490;-78
2024/01/28 13:44:42;;;;;;;2.58;0.95;;;;;;;;;;5102294;28;20531;-76
2024/01/28 13:47:13;;;;;;;2.17;0.77;;;;;;;;;;5102992;28;20047;-76
2024/01/28 13:49:43;;;;;;;3.35;1.00;;;;;;;;;;5100048;28;20059;-78
2024/01/28 13:52:15;;;;;;;1.65;0.60;;;;;;;;;;5102380;28;20054;-78
2024/01/28 13:54:45;;;;;;;2.53;1.00;;;;;;;;;;5101877;28;20040;-76
2024/01/28 13:57:17;;;;;;;4.25;1.00;;;;;;;;;;5101384;28;20062;-78
2024/01/28 13:59:50;;;;;;;3.38;0.98;;;;;;;;;;5102868;28;20062;-77
2024/01/28 14:02:22;;;;;;;2.22;0.70;;;;;;;;;;5105854;28;20098;-75
2024/01/28 14:04:53;;;;;;;7.35;0.85;;;;;;;;;;5104584;28;20043;-75
2024/01/28 14:07:23;;;;;;;4.50;1.15;;;;;;;;;;5105963;28;20055;-77
2024/01/28 14:09:54;;;;;;;2.95;0.95;;;;;;;;;;5105739;28;20052;-76
2024/01/28 14:12:25;;;;;;;5.10;1.02;;;;;;;;;;5105394;28;20067;-75
2024/01/28 14:14:55;;;;;;;6.82;1.77;;;;;;;;;;5105981;28;20055;-79
2024/01/28 14:17:27;;;;;;;4.30;1.10;;;;;;;;;;5106366;28;20048;-75
2024/01/28 14:19:58;;;;;;;3.35;1.30;;;;;;;;;;5105775;28;20063;-74
2024/01/28 14:22:29;;;;;;;3.03;1.38;;;;;;;;;;5105548;28;20047;-73
2024/01/28 14:25:00;;;;;;;3.08;1.40;;;;;;;;;;5105736;28;20051;-74
2024/01/28 14:27:30;;;;;;;3.20;1.42;;;;;;;;;;5104936;28;20039;-74
2024/01/28 14:30:02;;;;;;;3.33;1.20;;;;;;;;;;5105674;28;20542;-78
2024/01/28 14:32:33;;;;;;;1.92;1.23;;;;;;;;;;5105230;28;20462;-75
2024/01/28 14:35:04;;;;;;;4.32;1.73;;;;;;;;;;5105969;28;20047;-74
2024/01/28 14:37:34;;;;;;;3.03;1.35;;;;;;;;;;5105222;28;20047;-75
2024/01/28 14:40:06;;;;;;;5.90;1.25;;;;;;;;;;5105032;28;20047;-74
2024/01/28 14:42:37;;;;;;;5.75;0.80;;;;;;;;;;5105184;28;20051;-75
2024/01/28 14:45:09;;;;;;;4.55;1.00;;;;;;;;;;5105672;28;20051;-75
2024/01/28 14:47:40;;;;;;;1.98;0.93;;;;;;;;;;5104891;28;20044;-78
2024/01/28 14:50:11;;;;;;;2.75;1.38;;;;;;;;;;5105464;28;20044;-74
2024/01/28 14:52:42;;;;;;;3.70;1.60;;;;;;;;;;5105012;28;20098;-78
2024/01/28 14:55:13;;;;;;;3.22;1.20;;;;;;;;;;5104925;28;20043;-75
2024/01/28 14:57:43;;;;;;;2.55;1.00;;;;;;;;;;5105040;28;20055;-77
2024/01/28 15:00:14;;;;;;;3.63;1.50;;;;;;;;;;5105645;28;20048;-75
2024/01/28 15:02:49;;;;;;;2.38;1.27;;;;;;;;;;5104768;28;20055;-74
2024/01/28 15:05:19;;;;;;;4.68;1.52;;;;;;;;;;5105109;28;20047;-75
2024/01/28 15:07:49;;;;;;;2.45;1.30;;;;;;;;;;5105181;28;20052;-74